Welkom op de weersite van Veghel e.o.

NIEUW !!!->-> WEBCAM STEENUIL <-<- NIEUW !!!->-> WEBCAM STEENUIL <-<- NIEUW !!!->-> WEBCAM STEENUIL <-<- NIEUW !!!

Als plaatje niet actueel is cache legen;
Ctrl + Shift + R

Mijn ervaring is dat dit het best werk met Microsoft Edge en Firefox.


Webcam Veghel  Webcam Veghel


Steenuil Veghel  Steenuil Veghel


Onweer radar Meer informatie blitzortung!


Regen radar Meer informatie rain snow radar


U vindt ons ook hier:

Het Weer Aktueel

European Weather Network

Weather Underground

Benelux Weer Netwerk

AWEKAS


Het weer levert geen direct gevaar op.    Er zijn geen waarschuwingen afgegeven.

METAR rapporten vliegvelden

   
EHAM - Amsterdam
Gewijzigd: 11-04-2021 06:25
Gedeeltelijk bewolkt  
Gedeeltelijk bewolkt  
   Wind: Noorden 27.8 km/h
Wind: Noorden 27.8 km/h
Temperatuur: 3°C
Voelt als: -2°C
Dauwpunt: 1°C
Vochtigheid: 87%
Barometer: 1010 hPa
Bewolking: Partly Cloudy
Zicht: meer dan 10 km
Bewolking: Gedeeltelijk bewolkt 1500 ft
EHAM 110425Z 35015KT 320V030 9999 SCT015 03/01 Q1010 NOSIG
EHEH - Eindhoven
Gewijzigd: 11-04-2021 06:25
Motregen, Bewolking  
Motregen, Bewolking  
   Wind: NNW 13 km/h
Wind: NNW 13 km/h
Temperatuur: 3°C
Voelt als: -1°C
Dauwpunt: 2°C
Vochtigheid: 93%
Barometer: 1009 hPa
Bewolking: Overcast
Zicht: meer dan 10 km
Bewolking: Grotendeels bewolkt 600 ft,
Bewolking 700 ft
EHEH 110425Z AUTO 34007KT 300V020 9999 DZ BKN006 OVC007 03/02 Q1009 YLO TEMPO BKN003 BKN005
EHGR - Gilze/Rijen
Gewijzigd: 11-04-2021 06:25
Wat regen mogelijk, Bewolking  
Wat regen mogelijk, Bewolking  
   Wind: NNW 22.2 km/h
Wind: NNW 22.2 km/h
Temperatuur: 3°C
Voelt als: -2°C
Dauwpunt: 2°C
Vochtigheid: 93%
Barometer: 1010 hPa
Bewolking: Overcast
Zicht: meer dan 10 km
Bewolking: Gedeeltelijk bewolkt 600 ft,
Grotendeels bewolkt 700 ft,
Bewolking 800 ft
EHGR 110425Z AUTO 34012KT 270V030 9999 -RA SCT006 BKN007 OVC008 03/02 Q1010 YLO
EHBK - Maastricht
Gewijzigd: 11-04-2021 06:25
Wat regen mogelijk, Grotendeels bewolkt  
Wat regen mogelijk, Grotendeels bewolkt  
   Wind: NW 13 km/h
Wind: NW 13 km/h
Temperatuur: 3°C
Voelt als: -1°C
Dauwpunt: 2°C
Vochtigheid: 93%
Barometer: 1008 hPa
Bewolking: Mostly Cloudy
Zicht: 4 km
Bewolking: Grotendeels bewolkt 100 ft,
Grotendeels bewolkt 200 ft,
Grotendeels bewolkt 500 ft,
Licht bewolkt 1500 ft
EHBK 110425Z AUTO 31007KT 280V350 3900 -RA BKN001 BKN002 BKN005 FEW015CB 03/02 Q1008 REDZRA TEMPO 4000 DZRA
EHVK - Volkel
Gewijzigd: 11-04-2021 06:26
Lichte (mot)regen, Bewolking  
Lichte (mot)regen, Bewolking  
   Wind: NNW 13 km/h
Wind: NNW 13 km/h
Temperatuur: 3°C
Voelt als: -1°C
Dauwpunt: 2°C
Vochtigheid: 93%
Barometer: 1008 hPa
Bewolking: Overcast
Zicht: meer dan 10 km
Bewolking: Grotendeels bewolkt 600 ft,
Bewolking 700 ft
EHVK 110426Z AUTO 34007KT 310V010 9999 -DZ BKN006 OVC007 03/02 Q1008 YLO
EHFS - Vlissingen
Gewijzigd: 11-04-2021 06:25
Bewolking  
Bewolking  
   Wind: Noorden 29.6 km/h
Wind: Noorden 29.6 km/h
Temperatuur: 4°C
Voelt als: -1°C
Dauwpunt: 2°C
Vochtigheid: 87%
Barometer: 1011 hPa
Bewolking: Overcast
Zicht: meer dan 10 km
Bewolking: Licht bewolkt 1500 ft,
Grotendeels bewolkt 1900 ft,
Bewolking 2300 ft
EHFS 110425Z AUTO 01016KT 340V040 9999 FEW015/// BKN019/// OVC023/// 04/02 Q1011

Script ontwikkeld door  Saratoga-weather.org Aangepast voor de template door  Weerstation Leuven

Apparatuur in gebruik:

Weerstation
Davis VP2

Weerprogramma
WeatherLink

Weercomputer
Sponsor

Webleverancier
My provider

Davis VP2

WeatherLink

Sponsor

My provider